KSAN/SAN METAR and TAF weather

Enter ICAO airport designator
Station Type Date Time Source
KSAN METAR 2019/02/20 23:51 UTC NOAA

KSAN 202351Z 26012KT 10SM SCT026 BKN034 OVC060 13/08 A2989 RMK AO2 RAB26E40 SLP121 SCT V BKN VCSH P0002 60003 T01280078 10139 20122 56027


Station Type Date Time Source
KSAN Decoded METAR 2019/02/20 23:51 UTC NOAA

SAN DIEGO INTERNATIONAL \LINDBERGH FLD, CA, United States (KSAN) 32-44N 117-11W 12M
Feb 20, 2019 - 06:51 PM EST / 2019.02.20 2351 UTC
Wind: from the W (260 degrees) at 14 MPH (12 KT):0
Visibility: 10 mile(s):0
Sky conditions: overcast
Precipitation last hour: 0.02 inches
Temperature: 55.0 F (12.8 C)
Dew Point: 46.0 F (7.8 C)
Relative Humidity: 71%
Pressure (altimeter): 29.89 in. Hg (1012 hPa)
Pressure tendency: 0.08 inches (2.7 hPa) lower than three hours ago
ob: KSAN 202351Z 26012KT 10SM SCT026 BKN034 OVC060 13/08 A2989 RMK AO2 RAB26E40 SLP121 SCT V BKN VCSH P0002 60003 T01280078 10139 20122 56027
cycle: 0

Station Type Date Time Source
KSAN TAF 2019/02/20 22:40 UTC NOAA

TAF KSAN 202137Z 2022/2124 23013G22KT 6SM -SHRA BR SCT025 OVC035
FM211000 28015G25KT 4SM -SHRA BR BKN025
FM211900 29013KT P6SM VCSH SCT025 BKN050


Example: see airport list